London Airport
CYXU : now visible

Airfield :











YOU CAN JOIN US ON...

 
LOGIN :

Register | Disclaimer

   EN    FR    IT 

 









Legend :    VFR   Marginal VFR   IFR   Intensive IFR   Very Intensive IFR
Visi :
Ceiling :
>= 8 km
>= 3000ft
5 to 8 km
1000 to 3000 ft
1500m to 5 km
500 to 1000 ft
800 to 1500m
200 to 500 ft
< 800m
< 200 ft
Symbols :   Thunderstorms  Fog  Heavy snow  Heavy precipitations  Wind > 20 kt






- Airport Elevation : 912 ft
- IATA code : YXU


CYXU - London

CURRENT METAR :
  • 100300Z 36005KT 15SM FEW160 FEW190 FEW250 24/19 A2990 RMK AC1CC1CI1 AC TR SLP122 DENSITY ALT 2200FT

EXPIRED METARs :
  • 100200Z 14002KT 15SM FEW160 FEW250 25/20 A2991 RMK AC1CI1 CB TOPS DIST N SLP124 DENSITY ALT 2300FT
  • 100100Z 18005KT 15SM FEW160 FEW260 29/20 A2990 RMK AC1CI1 AC TR CB TOPS DIST ALQDS SLP120 DENSITY ALT 2700FT

TAF TAF CYXU
Valid from the 10 at 00:00 until the 11 at 00:00 UTC


092340Z 1000/1024 16010KT P6SM FEW050
FM100100 16006KT P6SM FEW060 SCT240
BECMG 1005/1007 VRB03KT
FM101600 17010KT P6SM BKN050
FM102000 18010KT P6SM -SHRA BKN050
PROB30 1020/1024 2SM TSRA BR BKN040CB RMK NXT FCST BY 100600Z
CZYZ FIR / North America



MET'MAP, your aeronautical weather chart ! - Copyright ORBIFLY December 2007 - Disclaimer

ORBIFLY MET'MAP TEAM :

Programming & Development : Alexandra Zaïnal
Concept & original design : Baudouin d'Aumeries
Assistance for programming : Marc-Olivier Méhu
Technical & hardware support : Manuel Goepfert

Contact : metmap@orbifly.com




SOURCES & CREDITS :

   NOAA       Earth
Advisory